sensor_id;sensor_type;location;lat;lon;timestamp;pressure;altitude;pressure_sealevel;temperature;humidity
15314;BME280;7757;52.626;4.746;2023-11-18T00:00:49;102100.84;;;15.04;78.17
15314;BME280;7757;52.626;4.746;2023-11-18T00:03:16;102120.94;;;15.17;78.16
15314;BME280;7757;52.626;4.746;2023-11-18T00:05:42;102149.38;;;15.34;78.52
15314;BME280;7757;52.626;4.746;2023-11-18T00:08:07;102145.56;;;15.28;78.24
15314;BME280;7757;52.626;4.746;2023-11-18T00:10:32;102083.63;;;14.91;78.22
15314;BME280;7757;52.626;4.746;2023-11-18T00:12:58;102138.69;;;15.26;78.00
15314;BME280;7757;52.626;4.746;2023-11-18T00:15:23;102111.53;;;15.13;78.43
15314;BME280;7757;52.626;4.746;2023-11-18T00:17:49;102021.75;;;14.53;77.83
15314;BME280;7757;52.626;4.746;2023-11-18T00:20:15;102112.94;;;15.08;77.71
15314;BME280;7757;52.626;4.746;2023-11-18T00:22:41;102047.44;;;14.79;78.00
15314;BME280;7757;52.626;4.746;2023-11-18T00:25:07;102122.16;;;15.29;78.01
15314;BME280;7757;52.626;4.746;2023-11-18T00:27:35;102084.06;;;15.02;77.82
15314;BME280;7757;52.626;4.746;2023-11-18T00:30:04;102061.63;;;14.87;77.78
15314;BME280;7757;52.626;4.746;2023-11-18T00:32:31;102135.34;;;15.24;78.07
15314;BME280;7757;52.626;4.746;2023-11-18T00:34:57;102149.28;;;15.27;77.92
15314;BME280;7757;52.626;4.746;2023-11-18T00:37:22;102100.28;;;14.94;77.92
15314;BME280;7757;52.626;4.746;2023-11-18T00:39:48;102150.78;;;15.30;77.67
15314;BME280;7757;52.626;4.746;2023-11-18T00:42:13;102071.56;;;14.87;77.32
15314;BME280;7757;52.626;4.746;2023-11-18T00:44:39;102140.34;;;15.27;77.95
15314;BME280;7757;52.626;4.746;2023-11-18T00:47:05;102135.69;;;15.21;77.22
15314;BME280;7757;52.626;4.746;2023-11-18T00:49:30;102087.47;;;14.82;77.40
15314;BME280;7757;52.626;4.746;2023-11-18T00:51:56;102135.63;;;15.14;77.61
15314;BME280;7757;52.626;4.746;2023-11-18T00:54:21;102152.44;;;15.16;77.21
15314;BME280;7757;52.626;4.746;2023-11-18T00:56:47;102094.03;;;14.79;77.48
15314;BME280;7757;52.626;4.746;2023-11-18T00:59:14;102084.44;;;14.77;77.90
15314;BME280;7757;52.626;4.746;2023-11-18T01:01:40;102077.31;;;14.69;77.41
15314;BME280;7757;52.626;4.746;2023-11-18T01:04:06;102105.66;;;14.94;77.41
15314;BME280;7757;52.626;4.746;2023-11-18T01:06:31;102075.53;;;14.76;77.84
15314;BME280;7757;52.626;4.746;2023-11-18T01:08:57;102160.31;;;15.18;77.55
15314;BME280;7757;52.626;4.746;2023-11-18T01:11:23;102099.63;;;14.92;77.23
15314;BME280;7757;52.626;4.746;2023-11-18T01:13:49;102143.72;;;15.14;77.56
15314;BME280;7757;52.626;4.746;2023-11-18T01:16:16;102123.16;;;14.98;78.02
15314;BME280;7757;52.626;4.746;2023-11-18T01:18:43;102142.03;;;15.13;78.25
15314;BME280;7757;52.626;4.746;2023-11-18T01:21:09;102040.22;;;14.57;77.55
15314;BME280;7757;52.626;4.746;2023-11-18T01:23:38;102056.84;;;14.60;77.21
15314;BME280;7757;52.626;4.746;2023-11-18T01:26:05;102034.56;;;14.51;77.49
15314;BME280;7757;52.626;4.746;2023-11-18T01:28:31;102115.69;;;15.00;77.50
15314;BME280;7757;52.626;4.746;2023-11-18T01:31:02;102109.56;;;14.92;77.90
15314;BME280;7757;52.626;4.746;2023-11-18T01:33:29;102143.72;;;15.14;77.67
15314;BME280;7757;52.626;4.746;2023-11-18T01:35:55;102148.72;;;15.17;77.57
15314;BME280;7757;52.626;4.746;2023-11-18T01:38:20;102058.25;;;14.71;76.83
15314;BME280;7757;52.626;4.746;2023-11-18T01:40:47;102084.66;;;14.75;77.39
15314;BME280;7757;52.626;4.746;2023-11-18T01:43:12;102082.03;;;14.67;77.47
15314;BME280;7757;52.626;4.746;2023-11-18T01:45:40;102105.75;;;14.86;77.43
15314;BME280;7757;52.626;4.746;2023-11-18T01:48:06;102152.16;;;15.11;77.85
15314;BME280;7757;52.626;4.746;2023-11-18T01:50:35;102153.94;;;15.19;77.17
15314;BME280;7757;52.626;4.746;2023-11-18T01:53:03;102085.38;;;14.69;77.01
15314;BME280;7757;52.626;4.746;2023-11-18T01:55:30;102163.59;;;15.13;77.50
15314;BME280;7757;52.626;4.746;2023-11-18T01:57:55;102154.41;;;15.22;77.10
15314;BME280;7757;52.626;4.746;2023-11-18T02:00:22;102129.91;;;14.94;76.92
15314;BME280;7757;52.626;4.746;2023-11-18T02:02:49;102092.44;;;14.70;77.00
15314;BME280;7757;52.626;4.746;2023-11-18T02:05:15;102150.72;;;15.00;77.65
15314;BME280;7757;52.626;4.746;2023-11-18T02:07:42;102155.97;;;15.17;77.19
15314;BME280;7757;52.626;4.746;2023-11-18T02:10:09;102162.47;;;15.07;76.92
15314;BME280;7757;52.626;4.746;2023-11-18T02:15:26;102144.34;;;15.01;77.32
15314;BME280;7757;52.626;4.746;2023-11-18T02:17:53;102122.91;;;14.85;77.19
15314;BME280;7757;52.626;4.746;2023-11-18T02:20:19;102113.47;;;14.89;77.33
15314;BME280;7757;52.626;4.746;2023-11-18T02:22:46;102135.44;;;15.16;77.14
15314;BME280;7757;52.626;4.746;2023-11-18T02:25:16;102134.22;;;15.18;77.01
15314;BME280;7757;52.626;4.746;2023-11-18T02:27:42;102137.47;;;15.14;77.69
15314;BME280;7757;52.626;4.746;2023-11-18T02:30:08;102103.78;;;14.80;77.46
15314;BME280;7757;52.626;4.746;2023-11-18T02:33:00;102132.63;;;15.09;77.40
15314;BME280;7757;52.626;4.746;2023-11-18T02:35:30;102126.78;;;15.05;77.23
15314;BME280;7757;52.626;4.746;2023-11-18T02:37:57;102112.53;;;14.97;76.89
15314;BME280;7757;52.626;4.746;2023-11-18T02:40:31;102124.91;;;15.06;77.67
15314;BME280;7757;52.626;4.746;2023-11-18T02:42:58;102097.94;;;14.91;77.60
15314;BME280;7757;52.626;4.746;2023-11-18T02:45:25;102123.91;;;15.07;77.74
15314;BME280;7757;52.626;4.746;2023-11-18T02:47:52;102101.47;;;14.92;77.81
15314;BME280;7757;52.626;4.746;2023-11-18T02:50:23;101992.88;;;14.25;77.15
15314;BME280;7757;52.626;4.746;2023-11-18T02:52:49;102034.63;;;14.43;77.32
15314;BME280;7757;52.626;4.746;2023-11-18T02:55:16;102075.91;;;14.73;77.20
15314;BME280;7757;52.626;4.746;2023-11-18T02:57:42;102064.00;;;14.68;77.78
15314;BME280;7757;52.626;4.746;2023-11-18T03:00:08;102108.44;;;14.86;77.59
15314;BME280;7757;52.626;4.746;2023-11-18T03:02:57;102031.31;;;14.56;77.22
15314;BME280;7757;52.626;4.746;2023-11-18T03:05:23;102047.09;;;14.59;77.54
15314;BME280;7757;52.626;4.746;2023-11-18T03:07:48;102012.25;;;14.43;77.56
15314;BME280;7757;52.626;4.746;2023-11-18T03:10:36;102015.47;;;14.38;77.55
15314;BME280;7757;52.626;4.746;2023-11-18T03:13:03;102087.47;;;14.96;77.24
15314;BME280;7757;52.626;4.746;2023-11-18T03:15:29;102077.88;;;14.94;77.01
15314;BME280;7757;52.626;4.746;2023-11-18T03:17:54;101995.06;;;14.44;77.40
15314;BME280;7757;52.626;4.746;2023-11-18T03:20:22;101952.22;;;14.20;76.84
15314;BME280;7757;52.626;4.746;2023-11-18T03:22:50;102035.50;;;14.73;76.92
15314;BME280;7757;52.626;4.746;2023-11-18T03:25:18;101943.69;;;14.16;77.54
15314;BME280;7757;52.626;4.746;2023-11-18T03:27:45;102066.94;;;14.95;77.35
15314;BME280;7757;52.626;4.746;2023-11-18T03:30:11;102007.91;;;14.57;77.17
15314;BME280;7757;52.626;4.746;2023-11-18T03:32:37;102030.91;;;14.82;77.22
15314;BME280;7757;52.626;4.746;2023-11-18T03:35:04;102045.50;;;15.02;76.71
15314;BME280;7757;52.626;4.746;2023-11-18T03:37:42;101989.72;;;14.73;76.78
15314;BME280;7757;52.626;4.746;2023-11-18T03:40:09;102027.84;;;14.99;77.47
15314;BME280;7757;52.626;4.746;2023-11-18T03:42:34;101948.03;;;14.55;77.50
15314;BME280;7757;52.626;4.746;2023-11-18T03:45:02;101996.31;;;14.85;77.10
15314;BME280;7757;52.626;4.746;2023-11-18T03:47:27;101896.19;;;14.23;77.07
15314;BME280;7757;52.626;4.746;2023-11-18T03:49:53;101940.81;;;14.70;76.45
15314;BME280;7757;52.626;4.746;2023-11-18T03:52:19;101982.78;;;14.93;76.87
15314;BME280;7757;52.626;4.746;2023-11-18T03:54:54;101994.66;;;14.99;77.23
15314;BME280;7757;52.626;4.746;2023-11-18T03:57:22;101979.63;;;14.90;77.15
15314;BME280;7757;52.626;4.746;2023-11-18T03:59:48;101955.13;;;14.70;76.66
15314;BME280;7757;52.626;4.746;2023-11-18T04:02:14;101948.78;;;14.63;77.32
15314;BME280;7757;52.626;4.746;2023-11-18T04:04:39;101946.63;;;14.59;76.62
15314;BME280;7757;52.626;4.746;2023-11-18T04:07:05;101874.00;;;14.21;76.81
15314;BME280;7757;52.626;4.746;2023-11-18T04:09:31;101912.69;;;14.43;76.82
15314;BME280;7757;52.626;4.746;2023-11-18T04:11:57;101934.97;;;14.66;77.13
15314;BME280;7757;52.626;4.746;2023-11-18T04:14:23;101943.22;;;14.65;77.50
15314;BME280;7757;52.626;4.746;2023-11-18T04:16:49;101982.03;;;14.85;77.63
15314;BME280;7757;52.626;4.746;2023-11-18T04:19:15;101860.94;;;14.18;76.62
15314;BME280;7757;52.626;4.746;2023-11-18T04:21:42;101918.81;;;14.51;77.02
15314;BME280;7757;52.626;4.746;2023-11-18T04:24:08;101984.53;;;14.86;77.25
15314;BME280;7757;52.626;4.746;2023-11-18T04:26:34;101892.72;;;14.37;77.05
15314;BME280;7757;52.626;4.746;2023-11-18T04:29:00;101962.06;;;14.79;76.80
15314;BME280;7757;52.626;4.746;2023-11-18T04:31:25;101942.03;;;14.67;77.24
15314;BME280;7757;52.626;4.746;2023-11-18T04:33:50;101889.34;;;14.35;77.50
15314;BME280;7757;52.626;4.746;2023-11-18T04:36:16;101926.78;;;14.60;76.99
15314;BME280;7757;52.626;4.746;2023-11-18T04:38:42;101955.28;;;14.83;77.57
15314;BME280;7757;52.626;4.746;2023-11-18T04:41:08;101881.28;;;14.50;76.72
15314;BME280;7757;52.626;4.746;2023-11-18T04:43:35;101929.72;;;14.79;77.36
15314;BME280;7757;52.626;4.746;2023-11-18T04:46:00;101953.34;;;14.77;77.64
15314;BME280;7757;52.626;4.746;2023-11-18T04:48:26;101844.88;;;14.10;77.18
15314;BME280;7757;52.626;4.746;2023-11-18T04:50:51;101904.69;;;14.49;76.77
15314;BME280;7757;52.626;4.746;2023-11-18T04:53:17;101871.59;;;14.26;76.92
15314;BME280;7757;52.626;4.746;2023-11-18T04:55:42;101889.56;;;14.34;77.22
15314;BME280;7757;52.626;4.746;2023-11-18T04:58:08;101888.22;;;14.30;77.31
15314;BME280;7757;52.626;4.746;2023-11-18T05:00:38;101869.75;;;14.27;76.96
15314;BME280;7757;52.626;4.746;2023-11-18T05:03:04;101951.75;;;14.68;77.85
15314;BME280;7757;52.626;4.746;2023-11-18T05:05:31;101890.25;;;14.28;77.22
15314;BME280;7757;52.626;4.746;2023-11-18T05:07:57;101849.50;;;14.02;77.76
15314;BME280;7757;52.626;4.746;2023-11-18T05:10:23;101875.31;;;14.25;77.27
15314;BME280;7757;52.626;4.746;2023-11-18T05:12:49;101952.88;;;14.74;77.80
15314;BME280;7757;52.626;4.746;2023-11-18T05:15:21;101948.31;;;14.74;77.81
15314;BME280;7757;52.626;4.746;2023-11-18T05:17:54;101916.84;;;14.60;77.44
15314;BME280;7757;52.626;4.746;2023-11-18T05:20:21;101945.91;;;14.79;76.82
15314;BME280;7757;52.626;4.746;2023-11-18T05:22:47;101891.41;;;14.48;76.39
15314;BME280;7757;52.626;4.746;2023-11-18T05:25:13;101939.69;;;14.79;77.02
15314;BME280;7757;52.626;4.746;2023-11-18T05:27:38;101831.34;;;14.18;76.86
15314;BME280;7757;52.626;4.746;2023-11-18T05:30:08;101919.34;;;14.76;77.45
15314;BME280;7757;52.626;4.746;2023-11-18T05:32:34;101910.16;;;14.71;77.45
15314;BME280;7757;52.626;4.746;2023-11-18T05:35:00;101786.53;;;13.96;77.45
15314;BME280;7757;52.626;4.746;2023-11-18T05:37:26;101910.72;;;14.81;76.58
15314;BME280;7757;52.626;4.746;2023-11-18T05:39:54;101908.41;;;14.78;77.02
15314;BME280;7757;52.626;4.746;2023-11-18T05:42:27;101899.38;;;14.71;77.45
15314;BME280;7757;52.626;4.746;2023-11-18T05:44:52;101776.53;;;14.05;76.86
15314;BME280;7757;52.626;4.746;2023-11-18T05:47:27;101897.03;;;14.82;77.26
15314;BME280;7757;52.626;4.746;2023-11-18T05:49:54;101901.78;;;14.80;76.77
15314;BME280;7757;52.626;4.746;2023-11-18T05:52:20;101832.53;;;14.30;77.33
15314;BME280;7757;52.626;4.746;2023-11-18T05:54:46;101850.19;;;14.47;76.69
15314;BME280;7757;52.626;4.746;2023-11-18T05:57:13;101891.69;;;14.68;76.88
15314;BME280;7757;52.626;4.746;2023-11-18T05:59:38;101830.81;;;14.37;76.73
15314;BME280;7757;52.626;4.746;2023-11-18T06:02:04;101750.16;;;14.00;77.20
15314;BME280;7757;52.626;4.746;2023-11-18T06:04:29;101865.41;;;14.70;77.88
15314;BME280;7757;52.626;4.746;2023-11-18T06:06:56;101862.25;;;14.66;77.10
15314;BME280;7757;52.626;4.746;2023-11-18T06:09:22;101870.50;;;14.65;77.59
15314;BME280;7757;52.626;4.746;2023-11-18T06:11:51;101824.13;;;14.48;77.24
15314;BME280;7757;52.626;4.746;2023-11-18T06:14:16;101775.31;;;14.22;77.44
15314;BME280;7757;52.626;4.746;2023-11-18T06:16:42;101872.81;;;14.68;77.53
15314;BME280;7757;52.626;4.746;2023-11-18T06:19:07;101773.63;;;14.06;77.44
15314;BME280;7757;52.626;4.746;2023-11-18T06:21:35;101876.81;;;14.72;77.97
15314;BME280;7757;52.626;4.746;2023-11-18T06:24:02;101891.13;;;14.72;77.11
15314;BME280;7757;52.626;4.746;2023-11-18T06:26:29;101893.81;;;14.72;77.63
15314;BME280;7757;52.626;4.746;2023-11-18T06:28:55;101868.75;;;14.57;77.09
15314;BME280;7757;52.626;4.746;2023-11-18T06:31:21;101839.34;;;14.41;77.60
15314;BME280;7757;52.626;4.746;2023-11-18T06:33:49;101807.59;;;14.22;77.81
15314;BME280;7757;52.626;4.746;2023-11-18T06:36:18;101888.59;;;14.71;77.98
15314;BME280;7757;52.626;4.746;2023-11-18T06:38:49;101849.53;;;14.60;76.90
15314;BME280;7757;52.626;4.746;2023-11-18T06:41:16;101888.06;;;14.75;77.40
15314;BME280;7757;52.626;4.746;2023-11-18T06:43:43;101850.66;;;14.51;76.74
15314;BME280;7757;52.626;4.746;2023-11-18T06:46:29;101892.88;;;14.65;77.27
15314;BME280;7757;52.626;4.746;2023-11-18T06:48:57;101888.44;;;14.72;77.24
15314;BME280;7757;52.626;4.746;2023-11-18T06:51:25;101889.91;;;14.75;76.92
15314;BME280;7757;52.626;4.746;2023-11-18T06:53:56;101874.97;;;14.72;77.27
15314;BME280;7757;52.626;4.746;2023-11-18T06:56:23;101880.44;;;14.79;77.31
15314;BME280;7757;52.626;4.746;2023-11-18T06:58:48;101841.84;;;14.57;76.60
15314;BME280;7757;52.626;4.746;2023-11-18T07:01:14;101859.19;;;14.69;76.50
15314;BME280;7757;52.626;4.746;2023-11-18T07:03:46;101866.97;;;14.79;76.43
15314;BME280;7757;52.626;4.746;2023-11-18T07:06:20;101886.34;;;14.89;76.29
15314;BME280;7757;52.626;4.746;2023-11-18T07:08:52;101871.25;;;14.88;76.54
15314;BME280;7757;52.626;4.746;2023-11-18T07:11:18;101811.13;;;14.51;76.43
15314;BME280;7757;52.626;4.746;2023-11-18T07:13:46;101862.50;;;14.86;76.10
15314;BME280;7757;52.626;4.746;2023-11-18T07:16:12;101856.94;;;14.87;76.18
15314;BME280;7757;52.626;4.746;2023-11-18T07:18:39;101858.75;;;15.01;76.14
15314;BME280;7757;52.626;4.746;2023-11-18T07:21:05;101819.78;;;14.83;76.11
15314;BME280;7757;52.626;4.746;2023-11-18T07:23:32;101851.06;;;14.98;76.21
15314;BME280;7757;52.626;4.746;2023-11-18T07:25:58;101820.28;;;15.07;76.53
15314;BME280;7757;52.626;4.746;2023-11-18T07:28:24;101837.91;;;15.10;75.90
15314;BME280;7757;52.626;4.746;2023-11-18T07:30:49;101799.00;;;14.77;75.87
15314;BME280;7757;52.626;4.746;2023-11-18T07:33:16;101848.06;;;15.08;75.92
15314;BME280;7757;52.626;4.746;2023-11-18T07:35:42;101807.88;;;14.92;75.95
15314;BME280;7757;52.626;4.746;2023-11-18T07:38:07;101826.16;;;14.96;76.05
15314;BME280;7757;52.626;4.746;2023-11-18T07:40:36;101837.00;;;15.03;76.51
15314;BME280;7757;52.626;4.746;2023-11-18T07:43:04;101830.81;;;15.02;75.79
15314;BME280;7757;52.626;4.746;2023-11-18T07:45:37;101827.78;;;15.12;75.74
15314;BME280;7757;52.626;4.746;2023-11-18T07:48:06;101826.16;;;15.18;76.01
15314;BME280;7757;52.626;4.746;2023-11-18T07:50:34;101803.03;;;15.02;76.19
15314;BME280;7757;52.626;4.746;2023-11-18T07:52:59;101819.91;;;15.11;76.01
15314;BME280;7757;52.626;4.746;2023-11-18T07:55:25;101818.66;;;15.13;76.50
15314;BME280;7757;52.626;4.746;2023-11-18T07:57:50;101810.06;;;15.03;76.29
15314;BME280;7757;52.626;4.746;2023-11-18T08:00:16;101813.28;;;15.13;76.40
15314;BME280;7757;52.626;4.746;2023-11-18T08:02:41;101782.22;;;14.96;75.60
15314;BME280;7757;52.626;4.746;2023-11-18T08:05:07;101774.06;;;14.89;76.21
15314;BME280;7757;52.626;4.746;2023-11-18T08:07:35;101755.19;;;14.68;76.28
15314;BME280;7757;52.626;4.746;2023-11-18T08:10:02;101699.13;;;14.36;76.44
15314;BME280;7757;52.626;4.746;2023-11-18T08:12:32;101771.13;;;14.84;76.78
15314;BME280;7757;52.626;4.746;2023-11-18T08:14:59;101808.91;;;15.12;76.16
15314;BME280;7757;52.626;4.746;2023-11-18T08:17:25;101801.41;;;15.07;76.23
15314;BME280;7757;52.626;4.746;2023-11-18T08:19:51;101763.22;;;14.83;76.48
15314;BME280;7757;52.626;4.746;2023-11-18T08:22:18;101807.25;;;15.11;76.10
15314;BME280;7757;52.626;4.746;2023-11-18T08:24:44;101780.88;;;15.06;76.25
15314;BME280;7757;52.626;4.746;2023-11-18T08:27:10;101782.19;;;15.11;76.40
15314;BME280;7757;52.626;4.746;2023-11-18T08:29:36;101781.94;;;15.05;75.96
15314;BME280;7757;52.626;4.746;2023-11-18T08:32:04;101592.25;;;13.94;76.67
15314;BME280;7757;52.626;4.746;2023-11-18T08:34:30;101705.59;;;14.77;76.68
15314;BME280;7757;52.626;4.746;2023-11-18T08:36:58;101606.34;;;14.17;76.57
15314;BME280;7757;52.626;4.746;2023-11-18T08:39:25;101725.47;;;14.97;76.81
15314;BME280;7757;52.626;4.746;2023-11-18T08:41:51;101732.59;;;15.05;76.19
15314;BME280;7757;52.626;4.746;2023-11-18T08:44:17;101650.00;;;14.48;76.88
15314;BME280;7757;52.626;4.746;2023-11-18T08:46:43;101749.44;;;15.35;76.75
15314;BME280;7757;52.626;4.746;2023-11-18T08:49:08;101733.56;;;15.46;76.88
15314;BME280;7757;52.626;4.746;2023-11-18T08:51:39;101734.03;;;15.50;76.39
15314;BME280;7757;52.626;4.746;2023-11-18T08:54:10;101705.94;;;15.44;77.32
15314;BME280;7757;52.626;4.746;2023-11-18T08:56:48;101583.72;;;14.69;76.96
15314;BME280;7757;52.626;4.746;2023-11-18T08:59:18;101605.22;;;14.90;77.18
15314;BME280;7757;52.626;4.746;2023-11-18T09:01:45;101653.13;;;15.22;77.49
15314;BME280;7757;52.626;4.746;2023-11-18T09:04:14;101708.34;;;15.54;77.43
15314;BME280;7757;52.626;4.746;2023-11-18T09:06:39;101703.97;;;15.53;77.01
15314;BME280;7757;52.626;4.746;2023-11-18T09:09:05;101684.13;;;15.60;77.05
15314;BME280;7757;52.626;4.746;2023-11-18T09:11:35;101676.88;;;15.61;76.76
15314;BME280;7757;52.626;4.746;2023-11-18T09:14:02;101673.06;;;15.49;77.03
15314;BME280;7757;52.626;4.746;2023-11-18T09:16:29;101679.69;;;15.53;76.29
15314;BME280;7757;52.626;4.746;2023-11-18T09:18:55;101640.41;;;15.37;76.32
15314;BME280;7757;52.626;4.746;2023-11-18T09:21:21;101618.06;;;15.16;76.15
15314;BME280;7757;52.626;4.746;2023-11-18T09:23:50;101658.47;;;15.43;76.42
15314;BME280;7757;52.626;4.746;2023-11-18T09:26:16;101685.59;;;15.63;75.84
15314;BME280;7757;52.626;4.746;2023-11-18T09:28:42;101657.25;;;15.46;76.28
15314;BME280;7757;52.626;4.746;2023-11-18T09:31:09;101664.00;;;15.63;76.03
15314;BME280;7757;52.626;4.746;2023-11-18T09:33:39;101662.72;;;15.59;75.87
15314;BME280;7757;52.626;4.746;2023-11-18T09:36:11;101644.25;;;15.49;75.68
15314;BME280;7757;52.626;4.746;2023-11-18T09:38:40;101647.56;;;15.51;76.11
15314;BME280;7757;52.626;4.746;2023-11-18T09:41:08;101685.34;;;15.58;75.79
15314;BME280;7757;52.626;4.746;2023-11-18T09:43:40;101696.22;;;15.43;77.11
15314;BME280;7757;52.626;4.746;2023-11-18T09:46:12;101700.19;;;15.47;76.31
15314;BME280;7757;52.626;4.746;2023-11-18T09:49:06;101694.09;;;15.39;77.05
15314;BME280;7757;52.626;4.746;2023-11-18T09:51:44;101687.16;;;15.51;76.59
15314;BME280;7757;52.626;4.746;2023-11-18T09:57:21;101683.97;;;15.41;76.81
15314;BME280;7757;52.626;4.746;2023-11-18T10:02:20;101680.88;;;15.44;76.64
15314;BME280;7757;52.626;4.746;2023-11-18T10:04:49;101652.13;;;15.23;77.27
15314;BME280;7757;52.626;4.746;2023-11-18T10:07:23;101631.75;;;15.21;77.13
15314;BME280;7757;52.626;4.746;2023-11-18T10:09:55;101614.78;;;15.20;76.31
15314;BME280;7757;52.626;4.746;2023-11-18T10:12:24;101625.84;;;15.32;76.38
15314;BME280;7757;52.626;4.746;2023-11-18T10:14:52;101592.44;;;15.26;76.72
15314;BME280;7757;52.626;4.746;2023-11-18T10:17:18;101593.06;;;15.28;76.63
15314;BME280;7757;52.626;4.746;2023-11-18T10:19:56;101593.09;;;15.35;75.98
15314;BME280;7757;52.626;4.746;2023-11-18T10:22:26;101558.16;;;15.14;76.36
15314;BME280;7757;52.626;4.746;2023-11-18T10:24:53;101600.75;;;15.31;76.21
15314;BME280;7757;52.626;4.746;2023-11-18T10:27:27;101618.34;;;15.27;76.55
15314;BME280;7757;52.626;4.746;2023-11-18T10:32:22;101591.31;;;15.14;76.53
15314;BME280;7757;52.626;4.746;2023-11-18T10:34:54;101610.47;;;15.32;76.46
15314;BME280;7757;52.626;4.746;2023-11-18T10:37:20;101584.94;;;15.22;76.32
15314;BME280;7757;52.626;4.746;2023-11-18T10:39:49;101582.47;;;15.27;76.55
15314;BME280;7757;52.626;4.746;2023-11-18T10:42:17;101522.19;;;15.00;76.98
15314;BME280;7757;52.626;4.746;2023-11-18T10:44:57;101552.38;;;15.17;77.15
15314;BME280;7757;52.626;4.746;2023-11-18T10:47:26;101530.59;;;15.18;77.14
15314;BME280;7757;52.626;4.746;2023-11-18T10:49:54;101492.38;;;15.01;76.60
15314;BME280;7757;52.626;4.746;2023-11-18T10:52:22;101507.19;;;15.19;77.12
15314;BME280;7757;52.626;4.746;2023-11-18T10:54:54;101509.03;;;15.18;77.12
15314;BME280;7757;52.626;4.746;2023-11-18T10:57:22;101474.94;;;14.97;77.27
15314;BME280;7757;52.626;4.746;2023-11-18T11:00:01;101490.34;;;15.10;77.50
15314;BME280;7757;52.626;4.746;2023-11-18T11:02:30;101453.00;;;15.00;76.92
15314;BME280;7757;52.626;4.746;2023-11-18T11:05:00;101433.69;;;14.97;77.03
15314;BME280;7757;52.626;4.746;2023-11-18T11:07:26;101454.72;;;15.08;77.61
15314;BME280;7757;52.626;4.746;2023-11-18T11:09:51;101461.28;;;14.99;77.39
15314;BME280;7757;52.626;4.746;2023-11-18T11:12:23;101457.13;;;14.96;77.92
15314;BME280;7757;52.626;4.746;2023-11-18T11:15:12;101371.31;;;14.46;77.37
15314;BME280;7757;52.626;4.746;2023-11-18T11:17:48;101428.13;;;14.98;77.80
15314;BME280;7757;52.626;4.746;2023-11-18T11:20:21;101372.13;;;14.81;77.18
15314;BME280;7757;52.626;4.746;2023-11-18T11:25:41;101409.88;;;14.94;77.59
15314;BME280;7757;52.626;4.746;2023-11-18T11:28:22;101408.63;;;14.90;77.22
15314;BME280;7757;52.626;4.746;2023-11-18T11:31:19;101401.16;;;14.92;78.13
15314;BME280;7757;52.626;4.746;2023-11-18T11:34:19;101394.97;;;14.98;77.97
15314;BME280;7757;52.626;4.746;2023-11-18T11:36:50;101354.50;;;14.78;77.27
15314;BME280;7757;52.626;4.746;2023-11-18T11:39:17;101377.13;;;14.90;77.14
15314;BME280;7757;52.626;4.746;2023-11-18T11:41:51;101346.34;;;14.65;77.92
15314;BME280;7757;52.626;4.746;2023-11-18T11:44:17;101383.31;;;14.91;78.21
15314;BME280;7757;52.626;4.746;2023-11-18T11:46:46;101331.03;;;14.66;78.39
15314;BME280;7757;52.626;4.746;2023-11-18T11:49:19;101332.56;;;14.81;78.53
15314;BME280;7757;52.626;4.746;2023-11-18T11:52:03;101301.50;;;14.79;77.95
15314;BME280;7757;52.626;4.746;2023-11-18T11:54:35;101303.53;;;14.77;78.02
15314;BME280;7757;52.626;4.746;2023-11-18T11:57:03;101323.41;;;14.69;78.13
15314;BME280;7757;52.626;4.746;2023-11-18T12:02:09;101374.34;;;14.71;77.72
15314;BME280;7757;52.626;4.746;2023-11-18T12:04:35;101451.66;;;14.83;78.63
15314;BME280;7757;52.626;4.746;2023-11-18T12:07:04;101402.94;;;14.72;77.90
15314;BME280;7757;52.626;4.746;2023-11-18T12:09:31;101375.59;;;14.75;78.08
15314;BME280;7757;52.626;4.746;2023-11-18T12:12:03;101359.44;;;14.75;78.04
15314;BME280;7757;52.626;4.746;2023-11-18T12:14:30;101297.28;;;14.63;78.28
15314;BME280;7757;52.626;4.746;2023-11-18T12:19:36;101294.25;;;14.86;78.31
15314;BME280;7757;52.626;4.746;2023-11-18T12:22:14;101291.53;;;14.86;78.26
15314;BME280;7757;52.626;4.746;2023-11-18T12:27:45;101316.19;;;14.83;78.24
15314;BME280;7757;52.626;4.746;2023-11-18T12:35:30;101286.41;;;14.97;77.87
15314;BME280;7757;52.626;4.746;2023-11-18T12:40:52;101270.06;;;15.05;77.58
15314;BME280;7757;52.626;4.746;2023-11-18T12:44:10;101267.97;;;15.01;77.51
15314;BME280;7757;52.626;4.746;2023-11-18T12:46:23;101250.56;;;15.03;77.76
15314;BME280;7757;52.626;4.746;2023-11-18T12:48:57;101119.72;;;14.29;77.98
15314;BME280;7757;52.626;4.746;2023-11-18T12:51:25;101192.16;;;15.17;79.19
15314;BME280;7757;52.626;4.746;2023-11-18T12:53:51;101206.03;;;15.40;78.77
15314;BME280;7757;52.626;4.746;2023-11-18T12:56:19;101189.03;;;15.33;79.26
15314;BME280;7757;52.626;4.746;2023-11-18T12:58:46;101212.50;;;15.52;79.60
15314;BME280;7757;52.626;4.746;2023-11-18T13:01:13;101167.69;;;15.32;79.57
15314;BME280;7757;52.626;4.746;2023-11-18T13:03:42;101171.63;;;15.49;79.66
15314;BME280;7757;52.626;4.746;2023-11-18T13:06:09;101175.53;;;15.59;79.80
15314;BME280;7757;52.626;4.746;2023-11-18T13:08:38;101082.13;;;15.14;79.74
15314;BME280;7757;52.626;4.746;2023-11-18T13:11:04;101083.56;;;15.17;79.93
15314;BME280;7757;52.626;4.746;2023-11-18T13:13:38;101095.72;;;15.39;79.46
15314;BME280;7757;52.626;4.746;2023-11-18T13:16:06;101110.22;;;15.64;79.45
15314;BME280;7757;52.626;4.746;2023-11-18T13:18:47;101112.53;;;15.47;79.25
15314;BME280;7757;52.626;4.746;2023-11-18T13:21:18;101072.97;;;15.28;79.85
15314;BME280;7757;52.626;4.746;2023-11-18T13:23:48;101003.22;;;14.81;79.46
15314;BME280;7757;52.626;4.746;2023-11-18T13:26:15;101136.34;;;15.63;79.76
15314;BME280;7757;52.626;4.746;2023-11-18T13:28:40;101085.19;;;15.31;79.11
15314;BME280;7757;52.626;4.746;2023-11-18T13:31:06;101026.19;;;14.96;79.17
15314;BME280;7757;52.626;4.746;2023-11-18T13:33:41;101110.84;;;15.46;79.38
15314;BME280;7757;52.626;4.746;2023-11-18T13:36:07;101101.13;;;15.52;79.16